CYRV

Revelstoke Airport

Revelstoke, British Columbia, Canada
METAR CYRV 251800Z AUTO VRB02KT 9SM OVC017 11/08 A3032 RMK SLP279
Observed Flight Rules
Sep-25 @ 18:00 UTC (an hour ago) Marginal Visual Flight Rules
Wind Visibility Clouds
Variable at 2 knots 9 miles
  • Overcast at 1,700' AGL
Temperatures Readings
Current 11°C / 52°F
Dewpoint 8°C / 46°F
Humidity 82%
Altimeter 30.32" Hg
Pressure 1027.9 hPa
Elevation 443
METAR CYRV 251800Z AUTO VRB02KT 9SM OVC017 11/08 A3032 RMK SLP279
Observed Flight Rules
Sep-25 @ 18:00 UTC
(an hour ago)
MVFR
Wind Visibility
Variable at 2 knots 9 miles
Clouds
  • Overcast at 1,700' AGL
Temperature Dewpoint
11°C / 52°F 8°C / 46°F
Humidity Altimeter Pressure
82% 30.32" Hg 1027.9 hPa